sensor_id;sensor_type;location;lat;lon;timestamp;pressure;altitude;pressure_sealevel;temperature;humidity
6435;BME280;3250;42.694;23.278;2023-05-01T00:00:12;94817.03;;;11.56;78.24
6435;BME280;3250;42.694;23.278;2023-05-01T00:02:38;94795.84;;;11.44;78.47
6435;BME280;3250;42.694;23.278;2023-05-01T00:05:04;94802.72;;;11.45;78.53
6435;BME280;3250;42.694;23.278;2023-05-01T00:07:30;94817.84;;;11.56;78.36
6435;BME280;3250;42.694;23.278;2023-05-01T00:09:56;94813.78;;;11.54;78.49
6435;BME280;3250;42.694;23.278;2023-05-01T00:12:22;94810.63;;;11.45;79.26
6435;BME280;3250;42.694;23.278;2023-05-01T00:14:47;94805.94;;;11.47;78.85
6435;BME280;3250;42.694;23.278;2023-05-01T00:17:13;94805.63;;;11.37;79.67
6435;BME280;3250;42.694;23.278;2023-05-01T00:19:38;94796.50;;;11.40;79.13
6435;BME280;3250;42.694;23.278;2023-05-01T00:22:04;94809.19;;;11.49;79.07
6435;BME280;3250;42.694;23.278;2023-05-01T00:24:29;94807.19;;;11.45;79.19
6435;BME280;3250;42.694;23.278;2023-05-01T00:26:54;94813.75;;;11.35;79.37
6435;BME280;3250;42.694;23.278;2023-05-01T00:29:20;94809.72;;;11.33;79.45
6435;BME280;3250;42.694;23.278;2023-05-01T00:31:46;94819.34;;;11.21;80.32
6435;BME280;3250;42.694;23.278;2023-05-01T00:34:11;94821.34;;;11.25;79.92
6435;BME280;3250;42.694;23.278;2023-05-01T00:36:37;94818.69;;;11.25;80.01
6435;BME280;3250;42.694;23.278;2023-05-01T00:39:02;94825.97;;;11.30;80.00
6435;BME280;3250;42.694;23.278;2023-05-01T00:41:28;94815.66;;;11.28;79.41
6435;BME280;3250;42.694;23.278;2023-05-01T00:43:53;94820.72;;;11.30;79.42
6435;BME280;3250;42.694;23.278;2023-05-01T00:46:19;94823.34;;;11.30;79.81
6435;BME280;3250;42.694;23.278;2023-05-01T00:48:45;94827.59;;;11.31;79.39
6435;BME280;3250;42.694;23.278;2023-05-01T00:51:11;94820.81;;;11.17;79.35
6435;BME280;3250;42.694;23.278;2023-05-01T00:53:39;94845.50;;;11.22;79.81
6435;BME280;3250;42.694;23.278;2023-05-01T00:56:05;94836.78;;;11.22;80.00
6435;BME280;3250;42.694;23.278;2023-05-01T00:58:30;94814.84;;;11.03;80.07
6435;BME280;3250;42.694;23.278;2023-05-01T01:00:56;94844.56;;;11.10;80.46
6435;BME280;3250;42.694;23.278;2023-05-01T01:03:22;94842.94;;;11.09;80.29
6435;BME280;3250;42.694;23.278;2023-05-01T01:05:56;94825.25;;;10.91;80.52
6435;BME280;3250;42.694;23.278;2023-05-01T01:08:38;94841.03;;;10.98;80.86
6435;BME280;3250;42.694;23.278;2023-05-01T01:11:33;94840.63;;;10.94;81.20
6435;BME280;3250;42.694;23.278;2023-05-01T01:14:22;94841.84;;;10.92;81.47
6435;BME280;3250;42.694;23.278;2023-05-01T01:17:23;94838.84;;;10.88;81.50
6435;BME280;3250;42.694;23.278;2023-05-01T01:22:40;94846.53;;;10.58;82.87
6435;BME280;3250;42.694;23.278;2023-05-01T01:31:20;94837.69;;;10.40;83.25
6435;BME280;3250;42.694;23.278;2023-05-01T01:36:36;94858.63;;;10.28;83.89
6435;BME280;3250;42.694;23.278;2023-05-01T01:39:21;94854.97;;;10.23;85.29
6435;BME280;3250;42.694;23.278;2023-05-01T01:41:50;94856.34;;;10.32;84.56
6435;BME280;3250;42.694;23.278;2023-05-01T01:44:33;94850.47;;;10.36;84.28
6435;BME280;3250;42.694;23.278;2023-05-01T01:47:04;94852.91;;;10.38;83.54
6435;BME280;3250;42.694;23.278;2023-05-01T01:49:31;94851.88;;;10.39;83.50
6435;BME280;3250;42.694;23.278;2023-05-01T01:52:00;94855.19;;;10.28;83.98
6435;BME280;3250;42.694;23.278;2023-05-01T01:54:34;94858.22;;;10.25;84.40
6435;BME280;3250;42.694;23.278;2023-05-01T01:57:02;94856.00;;;10.28;84.80
6435;BME280;3250;42.694;23.278;2023-05-01T01:59:33;94848.91;;;10.29;84.28
6435;BME280;3250;42.694;23.278;2023-05-01T02:01:59;94846.47;;;10.27;84.27
6435;BME280;3250;42.694;23.278;2023-05-01T02:04:26;94850.94;;;10.27;84.35
6435;BME280;3250;42.694;23.278;2023-05-01T02:06:54;94841.22;;;10.20;84.71
6435;BME280;3250;42.694;23.278;2023-05-01T02:09:21;94837.56;;;10.21;84.67
6435;BME280;3250;42.694;23.278;2023-05-01T02:11:48;94851.53;;;10.15;84.85
6435;BME280;3250;42.694;23.278;2023-05-01T02:14:17;94845.66;;;10.13;84.72
6435;BME280;3250;42.694;23.278;2023-05-01T02:16:42;94849.75;;;10.09;84.61
6435;BME280;3250;42.694;23.278;2023-05-01T02:19:09;94843.06;;;10.07;84.64
6435;BME280;3250;42.694;23.278;2023-05-01T02:21:35;94834.56;;;10.05;84.55
6435;BME280;3250;42.694;23.278;2023-05-01T02:24:03;94836.81;;;10.01;84.66
6435;BME280;3250;42.694;23.278;2023-05-01T02:26:30;94816.66;;;9.82;84.67
6435;BME280;3250;42.694;23.278;2023-05-01T02:28:56;94838.06;;;9.92;84.53
6435;BME280;3250;42.694;23.278;2023-05-01T02:31:22;94840.50;;;9.87;85.44
6435;BME280;3250;42.694;23.278;2023-05-01T02:33:48;94843.13;;;9.87;86.10
6435;BME280;3250;42.694;23.278;2023-05-01T02:36:13;94842.13;;;9.88;86.33
6435;BME280;3250;42.694;23.278;2023-05-01T02:38:39;94841.31;;;9.94;86.43
6435;BME280;3250;42.694;23.278;2023-05-01T02:41:05;94824.94;;;9.86;85.85
6435;BME280;3250;42.694;23.278;2023-05-01T02:43:32;94842.91;;;9.95;85.65
6435;BME280;3250;42.694;23.278;2023-05-01T02:46:00;94849.97;;;9.95;85.15
6435;BME280;3250;42.694;23.278;2023-05-01T02:48:27;94849.41;;;9.93;85.01
6435;BME280;3250;42.694;23.278;2023-05-01T02:50:54;94833.44;;;9.81;85.36
6435;BME280;3250;42.694;23.278;2023-05-01T02:53:21;94845.75;;;9.94;85.07
6435;BME280;3250;42.694;23.278;2023-05-01T02:55:47;94849.59;;;9.91;85.09
6435;BME280;3250;42.694;23.278;2023-05-01T02:58:17;94846.16;;;9.91;85.05
6435;BME280;3250;42.694;23.278;2023-05-01T03:00:43;94853.88;;;9.86;85.03
6435;BME280;3250;42.694;23.278;2023-05-01T03:03:10;94836.13;;;9.68;84.95
6435;BME280;3250;42.694;23.278;2023-05-01T03:05:37;94853.25;;;9.83;84.99
6435;BME280;3250;42.694;23.278;2023-05-01T03:08:02;94850.25;;;9.73;85.28
6435;BME280;3250;42.694;23.278;2023-05-01T03:10:28;94850.25;;;9.73;85.28
6435;BME280;3250;42.694;23.278;2023-05-01T03:12:53;94845.59;;;9.69;85.44
6435;BME280;3250;42.694;23.278;2023-05-01T03:15:19;94853.91;;;9.66;85.71
6435;BME280;3250;42.694;23.278;2023-05-01T03:17:44;94862.00;;;9.64;85.81
6435;BME280;3250;42.694;23.278;2023-05-01T03:20:10;94859.34;;;9.64;86.37
6435;BME280;3250;42.694;23.278;2023-05-01T03:22:35;94861.34;;;9.69;86.77
6435;BME280;3250;42.694;23.278;2023-05-01T03:25:01;94850.84;;;9.75;86.71
6435;BME280;3250;42.694;23.278;2023-05-01T03:27:28;94833.06;;;9.64;86.76
6435;BME280;3250;42.694;23.278;2023-05-01T03:29:55;94849.47;;;9.66;86.72
6435;BME280;3250;42.694;23.278;2023-05-01T03:32:20;94866.03;;;9.73;85.67
6435;BME280;3250;42.694;23.278;2023-05-01T03:34:46;94870.47;;;9.73;86.53
6435;BME280;3250;42.694;23.278;2023-05-01T03:37:12;94866.41;;;9.70;86.61
6435;BME280;3250;42.694;23.278;2023-05-01T03:39:37;94868.03;;;9.71;86.49
6435;BME280;3250;42.694;23.278;2023-05-01T03:42:03;94871.28;;;9.73;86.53
6435;BME280;3250;42.694;23.278;2023-05-01T03:44:29;94879.16;;;9.73;86.31
6435;BME280;3250;42.694;23.278;2023-05-01T03:46:54;94867.66;;;9.55;86.54
6435;BME280;3250;42.694;23.278;2023-05-01T03:49:20;94853.75;;;9.41;86.02
6435;BME280;3250;42.694;23.278;2023-05-01T03:51:45;94889.66;;;9.60;86.34
6435;BME280;3250;42.694;23.278;2023-05-01T03:54:10;94891.50;;;9.66;86.73
6435;BME280;3250;42.694;23.278;2023-05-01T03:56:36;94893.50;;;9.77;86.62
6435;BME280;3250;42.694;23.278;2023-05-01T03:59:02;94897.13;;;9.90;85.82
6435;BME280;3250;42.694;23.278;2023-05-01T04:01:28;94907.22;;;9.99;85.01
6435;BME280;3250;42.694;23.278;2023-05-01T04:03:53;94907.41;;;10.04;84.82
6435;BME280;3250;42.694;23.278;2023-05-01T04:06:19;94907.59;;;10.16;84.73
6435;BME280;3250;42.694;23.278;2023-05-01T04:08:45;94909.59;;;10.34;84.80
6435;BME280;3250;42.694;23.278;2023-05-01T04:11:10;94909.91;;;10.57;84.00
6435;BME280;3250;42.694;23.278;2023-05-01T04:13:36;94906.38;;;10.76;82.64
6435;BME280;3250;42.694;23.278;2023-05-01T04:16:01;94909.31;;;10.93;81.29
6435;BME280;3250;42.694;23.278;2023-05-01T04:18:27;94904.13;;;11.11;80.61
6435;BME280;3250;42.694;23.278;2023-05-01T04:20:52;94897.75;;;11.25;80.18
6435;BME280;3250;42.694;23.278;2023-05-01T04:23:18;94908.00;;;11.65;80.21
6435;BME280;3250;42.694;23.278;2023-05-01T04:25:44;94909.69;;;12.02;78.71
6435;BME280;3250;42.694;23.278;2023-05-01T04:28:10;94915.22;;;12.37;77.40
6435;BME280;3250;42.694;23.278;2023-05-01T04:30:36;94908.31;;;12.73;76.07
6435;BME280;3250;42.694;23.278;2023-05-01T04:33:02;94914.75;;;13.25;74.47
6435;BME280;3250;42.694;23.278;2023-05-01T04:35:30;94921.66;;;13.79;73.13
6435;BME280;3250;42.694;23.278;2023-05-01T04:37:56;94928.09;;;14.30;71.29
6435;BME280;3250;42.694;23.278;2023-05-01T04:40:21;94928.13;;;14.82;69.63
6435;BME280;3250;42.694;23.278;2023-05-01T04:42:46;94925.91;;;15.30;67.25
6435;BME280;3250;42.694;23.278;2023-05-01T04:45:12;94937.16;;;15.82;64.90
6435;BME280;3250;42.694;23.278;2023-05-01T04:47:37;94933.91;;;16.31;63.45
6435;BME280;3250;42.694;23.278;2023-05-01T04:50:03;94932.25;;;16.85;61.47
6435;BME280;3250;42.694;23.278;2023-05-01T04:52:28;94937.44;;;17.45;59.75
6435;BME280;3250;42.694;23.278;2023-05-01T04:54:54;94934.72;;;17.94;57.88
6435;BME280;3250;42.694;23.278;2023-05-01T04:57:19;94931.66;;;18.54;55.89
6435;BME280;3250;42.694;23.278;2023-05-01T04:59:44;94939.41;;;19.13;54.12
6435;BME280;3250;42.694;23.278;2023-05-01T05:02:10;94942.28;;;19.84;51.97
6435;BME280;3250;42.694;23.278;2023-05-01T05:04:36;94938.00;;;20.49;51.23
6435;BME280;3250;42.694;23.278;2023-05-01T05:07:01;94938.00;;;21.33;48.78
6435;BME280;3250;42.694;23.278;2023-05-01T05:09:26;94942.91;;;22.09;46.20
6435;BME280;3250;42.694;23.278;2023-05-01T05:11:52;94947.44;;;22.72;44.58
6435;BME280;3250;42.694;23.278;2023-05-01T05:14:17;94947.88;;;23.26;42.81
6435;BME280;3250;42.694;23.278;2023-05-01T05:16:42;94961.00;;;23.76;42.37
6435;BME280;3250;42.694;23.278;2023-05-01T05:19:08;94964.09;;;24.20;41.35
6435;BME280;3250;42.694;23.278;2023-05-01T05:21:34;94960.97;;;24.64;39.93
6435;BME280;3250;42.694;23.278;2023-05-01T05:23:59;94943.66;;;24.98;39.94
6435;BME280;3250;42.694;23.278;2023-05-01T05:26:24;94955.63;;;25.46;38.26
6435;BME280;3250;42.694;23.278;2023-05-01T05:28:50;94963.69;;;26.10;37.36
6435;BME280;3250;42.694;23.278;2023-05-01T05:31:16;94971.94;;;26.49;35.83
6435;BME280;3250;42.694;23.278;2023-05-01T05:33:41;94972.28;;;26.56;35.03
6435;BME280;3250;42.694;23.278;2023-05-01T05:36:07;94972.31;;;26.87;35.50
6435;BME280;3250;42.694;23.278;2023-05-01T05:38:32;94971.19;;;27.11;34.59
6435;BME280;3250;42.694;23.278;2023-05-01T05:40:57;94960.66;;;27.09;33.63
6435;BME280;3250;42.694;23.278;2023-05-01T05:43:23;94967.91;;;27.31;33.79
6435;BME280;3250;42.694;23.278;2023-05-01T05:45:49;94972.47;;;27.61;34.48
6435;BME280;3250;42.694;23.278;2023-05-01T05:48:14;94975.09;;;27.92;32.45
6435;BME280;3250;42.694;23.278;2023-05-01T05:50:40;94980.97;;;28.03;32.20
6435;BME280;3250;42.694;23.278;2023-05-01T05:53:05;94978.25;;;28.11;33.47
6435;BME280;3250;42.694;23.278;2023-05-01T05:55:30;94978.25;;;28.03;32.92
6435;BME280;3250;42.694;23.278;2023-05-01T05:57:56;94973.81;;;27.98;33.31
6435;BME280;3250;42.694;23.278;2023-05-01T06:00:21;94977.63;;;27.89;32.92
6435;BME280;3250;42.694;23.278;2023-05-01T06:02:47;94974.06;;;27.54;33.51
6435;BME280;3250;42.694;23.278;2023-05-01T06:05:12;94977.41;;;27.68;34.66
6435;BME280;3250;42.694;23.278;2023-05-01T06:07:38;94981.91;;;27.24;34.52
6435;BME280;3250;42.694;23.278;2023-05-01T06:10:04;94967.59;;;26.93;34.23
6435;BME280;3250;42.694;23.278;2023-05-01T06:12:30;94983.50;;;26.94;34.88
6435;BME280;3250;42.694;23.278;2023-05-01T06:14:56;94988.59;;;26.74;35.13
6435;BME280;3250;42.694;23.278;2023-05-01T06:17:23;94966.25;;;26.28;34.93
6435;BME280;3250;42.694;23.278;2023-05-01T06:19:48;94977.69;;;25.76;35.63
6435;BME280;3250;42.694;23.278;2023-05-01T06:22:17;94973.81;;;25.41;37.32
6435;BME280;3250;42.694;23.278;2023-05-01T06:24:43;94975.69;;;25.40;38.32
6435;BME280;3250;42.694;23.278;2023-05-01T06:27:08;94981.38;;;25.39;37.83
6435;BME280;3250;42.694;23.278;2023-05-01T06:29:34;94978.69;;;25.11;38.86
6435;BME280;3250;42.694;23.278;2023-05-01T06:31:59;94981.56;;;25.01;40.38
6435;BME280;3250;42.694;23.278;2023-05-01T06:34:24;94978.78;;;24.93;38.65
6435;BME280;3250;42.694;23.278;2023-05-01T06:36:50;94975.69;;;24.67;39.91
6435;BME280;3250;42.694;23.278;2023-05-01T06:39:15;94983.09;;;24.75;41.38
6435;BME280;3250;42.694;23.278;2023-05-01T06:41:40;94968.66;;;24.71;39.90
6435;BME280;3250;42.694;23.278;2023-05-01T06:44:06;94982.63;;;24.73;40.58
6435;BME280;3250;42.694;23.278;2023-05-01T06:46:31;94971.81;;;24.59;39.67
6435;BME280;3250;42.694;23.278;2023-05-01T06:48:57;94984.19;;;24.74;40.90
6435;BME280;3250;42.694;23.278;2023-05-01T06:51:22;94980.16;;;24.58;39.94
6435;BME280;3250;42.694;23.278;2023-05-01T06:53:48;94987.81;;;24.37;41.89
6435;BME280;3250;42.694;23.278;2023-05-01T06:56:13;94986.78;;;24.33;40.13
6435;BME280;3250;42.694;23.278;2023-05-01T06:58:38;94989.31;;;24.43;41.41
6435;BME280;3250;42.694;23.278;2023-05-01T07:01:04;94988.50;;;24.42;41.31
6435;BME280;3250;42.694;23.278;2023-05-01T07:03:29;94990.50;;;24.37;40.98
6435;BME280;3250;42.694;23.278;2023-05-01T07:05:55;94995.94;;;24.32;41.27
6435;BME280;3250;42.694;23.278;2023-05-01T07:08:20;94984.94;;;24.47;43.78
6435;BME280;3250;42.694;23.278;2023-05-01T07:10:46;94974.31;;;24.56;41.43
6435;BME280;3250;42.694;23.278;2023-05-01T07:13:13;94990.13;;;24.90;40.16
6435;BME280;3250;42.694;23.278;2023-05-01T07:15:39;94979.94;;;24.87;40.20
6435;BME280;3250;42.694;23.278;2023-05-01T07:18:04;94971.09;;;24.54;39.40
6435;BME280;3250;42.694;23.278;2023-05-01T07:20:31;94994.06;;;24.65;40.27
6435;BME280;3250;42.694;23.278;2023-05-01T07:22:56;94999.97;;;24.48;41.04
6435;BME280;3250;42.694;23.278;2023-05-01T07:25:22;94998.88;;;24.49;38.75
6435;BME280;3250;42.694;23.278;2023-05-01T07:27:47;94999.81;;;24.26;38.75
6435;BME280;3250;42.694;23.278;2023-05-01T07:30:13;94992.66;;;23.97;39.42
6435;BME280;3250;42.694;23.278;2023-05-01T07:32:38;94997.09;;;23.46;40.28
6435;BME280;3250;42.694;23.278;2023-05-01T07:35:04;94996.44;;;23.59;41.09
6435;BME280;3250;42.694;23.278;2023-05-01T07:37:29;94998.91;;;23.74;40.79
6435;BME280;3250;42.694;23.278;2023-05-01T07:39:55;94997.75;;;24.18;42.02
6435;BME280;3250;42.694;23.278;2023-05-01T07:42:22;94998.59;;;24.51;41.46
6435;BME280;3250;42.694;23.278;2023-05-01T07:44:49;94997.00;;;24.50;39.89
6435;BME280;3250;42.694;23.278;2023-05-01T07:47:15;94973.34;;;23.95;39.60
6435;BME280;3250;42.694;23.278;2023-05-01T07:49:40;94998.28;;;24.01;41.64
6435;BME280;3250;42.694;23.278;2023-05-01T07:52:06;94980.41;;;24.29;42.00
6435;BME280;3250;42.694;23.278;2023-05-01T07:54:32;94997.09;;;24.44;38.95
6435;BME280;3250;42.694;23.278;2023-05-01T07:56:57;94996.16;;;24.35;39.18
6435;BME280;3250;42.694;23.278;2023-05-01T07:59:23;94999.84;;;24.39;39.98
6435;BME280;3250;42.694;23.278;2023-05-01T08:01:48;94992.22;;;24.47;39.44
6435;BME280;3250;42.694;23.278;2023-05-01T08:04:14;95001.59;;;24.49;39.05
6435;BME280;3250;42.694;23.278;2023-05-01T08:06:41;94991.56;;;24.68;40.27
6435;BME280;3250;42.694;23.278;2023-05-01T08:09:06;94983.09;;;25.07;40.18
6435;BME280;3250;42.694;23.278;2023-05-01T08:11:32;94992.09;;;25.16;39.29
6435;BME280;3250;42.694;23.278;2023-05-01T08:13:58;94993.47;;;25.41;40.46
6435;BME280;3250;42.694;23.278;2023-05-01T08:16:23;94982.47;;;25.51;37.59
6435;BME280;3250;42.694;23.278;2023-05-01T08:18:49;94973.91;;;25.22;36.10
6435;BME280;3250;42.694;23.278;2023-05-01T08:21:14;94988.06;;;25.28;36.44
6435;BME280;3250;42.694;23.278;2023-05-01T08:23:40;94992.25;;;25.20;36.13
6435;BME280;3250;42.694;23.278;2023-05-01T08:26:05;94994.66;;;25.22;36.51
6435;BME280;3250;42.694;23.278;2023-05-01T08:28:33;94990.25;;;24.66;36.86
6435;BME280;3250;42.694;23.278;2023-05-01T08:30:58;94988.88;;;24.17;37.38
6435;BME280;3250;42.694;23.278;2023-05-01T08:33:24;94990.47;;;24.18;38.25
6435;BME280;3250;42.694;23.278;2023-05-01T08:35:49;94988.41;;;24.48;37.98
6435;BME280;3250;42.694;23.278;2023-05-01T08:38:15;94986.88;;;24.60;38.06
6435;BME280;3250;42.694;23.278;2023-05-01T08:40:45;94980.69;;;24.60;36.19
6435;BME280;3250;42.694;23.278;2023-05-01T08:43:11;94977.31;;;24.17;37.32
6435;BME280;3250;42.694;23.278;2023-05-01T08:45:37;94986.13;;;24.22;36.76
6435;BME280;3250;42.694;23.278;2023-05-01T08:48:07;94985.84;;;23.86;37.61
6435;BME280;3250;42.694;23.278;2023-05-01T08:50:34;94983.56;;;23.56;36.37
6435;BME280;3250;42.694;23.278;2023-05-01T08:53:04;94969.56;;;23.35;35.63
6435;BME280;3250;42.694;23.278;2023-05-01T08:55:31;94976.06;;;23.29;36.99
6435;BME280;3250;42.694;23.278;2023-05-01T08:57:58;94971.06;;;22.99;37.69
6435;BME280;3250;42.694;23.278;2023-05-01T09:00:24;94970.31;;;22.64;39.45
6435;BME280;3250;42.694;23.278;2023-05-01T09:02:50;94972.06;;;22.21;39.61
6435;BME280;3250;42.694;23.278;2023-05-01T09:05:18;94965.44;;;22.66;39.55
6435;BME280;3250;42.694;23.278;2023-05-01T09:07:44;94964.38;;;22.96;40.03
6435;BME280;3250;42.694;23.278;2023-05-01T09:10:15;94960.38;;;23.17;38.76
6435;BME280;3250;42.694;23.278;2023-05-01T09:12:41;94970.53;;;23.20;40.16
6435;BME280;3250;42.694;23.278;2023-05-01T09:15:10;94971.75;;;23.33;38.41
6435;BME280;3250;42.694;23.278;2023-05-01T09:17:36;94972.50;;;23.15;37.82
6435;BME280;3250;42.694;23.278;2023-05-01T09:20:02;94972.25;;;22.87;38.14
6435;BME280;3250;42.694;23.278;2023-05-01T09:22:32;94966.38;;;22.56;38.66
6435;BME280;3250;42.694;23.278;2023-05-01T09:24:57;94969.66;;;22.19;38.92
6435;BME280;3250;42.694;23.278;2023-05-01T09:27:25;94968.28;;;22.22;39.04
6435;BME280;3250;42.694;23.278;2023-05-01T09:29:51;94960.84;;;21.70;38.96
6435;BME280;3250;42.694;23.278;2023-05-01T09:32:17;94972.53;;;21.84;39.67
6435;BME280;3250;42.694;23.278;2023-05-01T09:34:45;94966.00;;;21.56;40.78
6435;BME280;3250;42.694;23.278;2023-05-01T09:37:13;94971.34;;;21.61;40.01
6435;BME280;3250;42.694;23.278;2023-05-01T09:39:48;94965.69;;;21.68;39.97
6435;BME280;3250;42.694;23.278;2023-05-01T09:42:22;94964.78;;;21.33;41.26
6435;BME280;3250;42.694;23.278;2023-05-01T09:44:48;94953.47;;;21.46;43.17
6435;BME280;3250;42.694;23.278;2023-05-01T09:47:20;94964.75;;;21.88;40.91
6435;BME280;3250;42.694;23.278;2023-05-01T09:49:47;94930.84;;;21.68;42.38
6435;BME280;3250;42.694;23.278;2023-05-01T09:52:13;94940.34;;;21.89;43.00
6435;BME280;3250;42.694;23.278;2023-05-01T09:54:39;94966.91;;;22.25;41.46
6435;BME280;3250;42.694;23.278;2023-05-01T09:57:05;94958.88;;;21.86;41.15
6435;BME280;3250;42.694;23.278;2023-05-01T09:59:31;94951.84;;;21.90;41.71
6435;BME280;3250;42.694;23.278;2023-05-01T10:01:59;94948.47;;;21.79;41.80
6435;BME280;3250;42.694;23.278;2023-05-01T10:04:34;94938.31;;;21.71;41.42
6435;BME280;3250;42.694;23.278;2023-05-01T10:07:12;94956.72;;;21.43;41.46
6435;BME280;3250;42.694;23.278;2023-05-01T10:09:38;94955.59;;;21.50;42.93
6435;BME280;3250;42.694;23.278;2023-05-01T10:12:05;94957.16;;;21.61;41.64
6435;BME280;3250;42.694;23.278;2023-05-01T10:14:30;94955.66;;;21.39;41.22
6435;BME280;3250;42.694;23.278;2023-05-01T10:16:58;94947.94;;;21.28;40.87
6435;BME280;3250;42.694;23.278;2023-05-01T10:19:23;94946.91;;;21.14;39.87
6435;BME280;3250;42.694;23.278;2023-05-01T10:21:49;94949.41;;;20.85;41.20
6435;BME280;3250;42.694;23.278;2023-05-01T10:24:15;94944.41;;;20.63;42.64
6435;BME280;3250;42.694;23.278;2023-05-01T10:26:41;94945.16;;;20.79;43.33
6435;BME280;3250;42.694;23.278;2023-05-01T10:29:08;94942.00;;;20.66;41.35
6435;BME280;3250;42.694;23.278;2023-05-01T10:31:33;94927.31;;;20.44;41.55
6435;BME280;3250;42.694;23.278;2023-05-01T10:34:00;94938.78;;;20.54;41.58
6435;BME280;3250;42.694;23.278;2023-05-01T10:36:36;94934.47;;;20.74;43.56
6435;BME280;3250;42.694;23.278;2023-05-01T10:39:03;94935.69;;;21.06;44.64
6435;BME280;3250;42.694;23.278;2023-05-01T10:44:24;94945.69;;;21.50;43.57
6435;BME280;3250;42.694;23.278;2023-05-01T10:46:49;94943.25;;;21.54;43.73
6435;BME280;3250;42.694;23.278;2023-05-01T10:49:15;94925.13;;;21.40;42.48
6435;BME280;3250;42.694;23.278;2023-05-01T10:51:58;94927.47;;;21.47;43.59
6435;BME280;3250;42.694;23.278;2023-05-01T10:54:30;94943.25;;;21.54;42.55
6435;BME280;3250;42.694;23.278;2023-05-01T10:57:01;94939.34;;;21.36;40.53
6435;BME280;3250;42.694;23.278;2023-05-01T11:02:21;94937.66;;;20.81;41.23
6435;BME280;3250;42.694;23.278;2023-05-01T11:04:48;94940.88;;;20.78;41.90
6435;BME280;3250;42.694;23.278;2023-05-01T11:07:16;94939.75;;;20.99;40.83
6435;BME280;3250;42.694;23.278;2023-05-01T11:09:52;94936.50;;;21.17;41.84
6435;BME280;3250;42.694;23.278;2023-05-01T11:15:10;94919.56;;;21.27;40.64
6435;BME280;3250;42.694;23.278;2023-05-01T11:20:04;94947.59;;;21.44;39.66
6435;BME280;3250;42.694;23.278;2023-05-01T11:22:31;94923.81;;;21.33;39.77
6435;BME280;3250;42.694;23.278;2023-05-01T11:24:57;94933.16;;;21.40;40.61
6435;BME280;3250;42.694;23.278;2023-05-01T11:27:22;94933.25;;;21.69;42.11
6435;BME280;3250;42.694;23.278;2023-05-01T11:29:49;94933.53;;;21.63;39.56
6435;BME280;3250;42.694;23.278;2023-05-01T11:32:19;94937.00;;;21.14;39.69
6435;BME280;3250;42.694;23.278;2023-05-01T11:34:47;94941.69;;;20.73;40.08
6435;BME280;3250;42.694;23.278;2023-05-01T11:37:13;94928.88;;;20.65;40.52
6435;BME280;3250;42.694;23.278;2023-05-01T11:39:47;94928.81;;;20.80;40.98
6435;BME280;3250;42.694;23.278;2023-05-01T11:42:12;94936.78;;;20.95;40.38
6435;BME280;3250;42.694;23.278;2023-05-01T11:44:37;94919.06;;;21.15;40.01
6435;BME280;3250;42.694;23.278;2023-05-01T11:47:03;94932.63;;;21.38;40.72
6435;BME280;3250;42.694;23.278;2023-05-01T11:49:31;94921.84;;;21.49;40.68
6435;BME280;3250;42.694;23.278;2023-05-01T11:51:57;94921.19;;;21.67;38.78
6435;BME280;3250;42.694;23.278;2023-05-01T11:54:23;94918.47;;;21.72;39.00
6435;BME280;3250;42.694;23.278;2023-05-01T11:56:57;94919.06;;;21.64;41.28
6435;BME280;3250;42.694;23.278;2023-05-01T11:59:24;94926.03;;;21.65;38.70
6435;BME280;3250;42.694;23.278;2023-05-01T12:01:50;94908.78;;;21.37;38.47
6435;BME280;3250;42.694;23.278;2023-05-01T12:04:26;94926.03;;;21.65;39.80
6435;BME280;3250;42.694;23.278;2023-05-01T12:06:52;94908.72;;;21.52;38.32
6435;BME280;3250;42.694;23.278;2023-05-01T12:09:22;94923.31;;;21.26;39.50
6435;BME280;3250;42.694;23.278;2023-05-01T12:11:50;94924.16;;;21.16;39.28
6435;BME280;3250;42.694;23.278;2023-05-01T12:14:16;94930.94;;;20.88;40.46
6435;BME280;3250;42.694;23.278;2023-05-01T12:16:42;94927.00;;;20.60;41.59
6435;BME280;3250;42.694;23.278;2023-05-01T12:19:08;94927.31;;;20.44;41.44
6435;BME280;3250;42.694;23.278;2023-05-01T12:21:36;94939.34;;;20.21;42.36
6435;BME280;3250;42.694;23.278;2023-05-01T12:24:08;94932.66;;;20.08;42.60
6435;BME280;3250;42.694;23.278;2023-05-01T12:26:34;94942.28;;;19.94;42.65
6435;BME280;3250;42.694;23.278;2023-05-01T12:29:03;94924.91;;;19.81;42.39
6435;BME280;3250;42.694;23.278;2023-05-01T12:31:29;94941.50;;;19.88;42.19
6435;BME280;3250;42.694;23.278;2023-05-01T12:34:04;94949.75;;;19.92;41.05
6435;BME280;3250;42.694;23.278;2023-05-01T12:36:34;94942.81;;;19.76;41.43
6435;BME280;3250;42.694;23.278;2023-05-01T12:39:02;94941.75;;;19.92;40.68
6435;BME280;3250;42.694;23.278;2023-05-01T12:41:39;94930.78;;;19.93;41.33
6435;BME280;3250;42.694;23.278;2023-05-01T12:44:21;94935.88;;;20.10;41.50
6435;BME280;3250;42.694;23.278;2023-05-01T12:47:01;94941.50;;;20.34;40.83
6435;BME280;3250;42.694;23.278;2023-05-01T12:49:28;94936.69;;;20.36;40.61
6435;BME280;3250;42.694;23.278;2023-05-01T12:51:56;94904.03;;;20.29;40.72
6435;BME280;3250;42.694;23.278;2023-05-01T12:54:26;94935.59;;;20.22;41.88
6435;BME280;3250;42.694;23.278;2023-05-01T12:56:53;94940.94;;;20.02;41.93
6435;BME280;3250;42.694;23.278;2023-05-01T12:59:28;94919.56;;;19.86;40.87
6435;BME280;3250;42.694;23.278;2023-05-01T13:01:59;94938.53;;;19.75;41.24
6435;BME280;3250;42.694;23.278;2023-05-01T13:04:25;94941.66;;;19.41;42.30
6435;BME280;3250;42.694;23.278;2023-05-01T13:06:55;94903.47;;;19.36;44.01
6435;BME280;3250;42.694;23.278;2023-05-01T13:09:25;94943.84;;;19.59;45.73
6435;BME280;3250;42.694;23.278;2023-05-01T13:12:02;94935.06;;;19.89;45.33
6435;BME280;3250;42.694;23.278;2023-05-01T13:14:37;94927.56;;;20.07;43.43
6435;BME280;3250;42.694;23.278;2023-05-01T13:17:05;94959.41;;;20.03;43.28
6435;BME280;3250;42.694;23.278;2023-05-01T13:19:31;94940.94;;;19.91;41.77
6435;BME280;3250;42.694;23.278;2023-05-01T13:21:57;94954.31;;;19.96;40.46
6435;BME280;3250;42.694;23.278;2023-05-01T13:24:43;94949.78;;;19.87;41.49
6435;BME280;3250;42.694;23.278;2023-05-01T13:27:10;94951.59;;;19.51;41.75
6435;BME280;3250;42.694;23.278;2023-05-01T13:29:39;94951.56;;;19.46;40.55
6435;BME280;3250;42.694;23.278;2023-05-01T13:32:10;94949.66;;;19.46;42.08
6435;BME280;3250;42.694;23.278;2023-05-01T13:34:35;94971.34;;;19.50;45.21